createdAt,value
2023-03-27T00:00:27.366Z,1.09
2023-03-27T00:02:59.067Z,1.23
2023-03-27T00:05:31.573Z,0.79
2023-03-27T00:08:04.355Z,0.69
2023-03-27T00:10:37.552Z,0.78
2023-03-27T00:13:10.007Z,1.07
2023-03-27T00:15:41.729Z,1.03
2023-03-27T00:18:13.358Z,0.88
2023-03-27T00:20:44.893Z,0.80
2023-03-27T00:23:16.396Z,0.82
2023-03-27T00:25:49.923Z,0.10
2023-03-27T00:28:21.395Z,0.56
2023-03-27T00:30:54.835Z,0.51
2023-03-27T00:33:26.582Z,0.35
2023-03-27T00:35:58.038Z,0.51
2023-03-27T00:38:29.732Z,0.43
2023-03-27T00:41:01.490Z,0.44
2023-03-27T00:43:35.124Z,0.26
2023-03-27T00:46:15.416Z,-0.02
2023-03-27T00:48:51.391Z,0.22
2023-03-27T00:51:24.958Z,0.15
2023-03-27T00:53:57.127Z,-0.07
2023-03-27T00:56:28.801Z,-0.63
2023-03-27T00:59:05.309Z,-0.20
2023-03-27T01:01:36.914Z,-0.30
2023-03-27T01:04:09.141Z,-0.47
2023-03-27T01:06:42.060Z,-0.35
2023-03-27T01:09:20.235Z,-0.88
2023-03-27T01:12:08.600Z,-0.30
2023-03-27T01:15:03.691Z,-0.43
2023-03-27T01:18:01.150Z,-0.76
2023-03-27T01:21:09.217Z,-0.56
2023-03-27T01:24:19.736Z,-0.45
2023-03-27T01:27:04.209Z,-0.71
2023-03-27T01:29:46.911Z,-0.38
2023-03-27T01:32:56.926Z,0.05
2023-03-27T01:35:38.161Z,-0.37
2023-03-27T01:38:28.584Z,-0.06
2023-03-27T01:41:18.767Z,-0.16
2023-03-27T01:44:15.583Z,-0.62
2023-03-27T01:46:54.797Z,-0.97
2023-03-27T01:49:45.522Z,-1.08
2023-03-27T01:52:24.611Z,-0.77
2023-03-27T01:55:04.812Z,-0.53
2023-03-27T01:57:50.076Z,-0.70
2023-03-27T02:00:24.233Z,-0.70
2023-03-27T02:03:00.185Z,-0.86
2023-03-27T02:05:36.810Z,-1.14
2023-03-27T02:08:26.270Z,-0.84
2023-03-27T02:10:59.495Z,-1.15
2023-03-27T02:13:44.439Z,-0.98
2023-03-27T02:16:21.745Z,-0.94
2023-03-27T02:18:59.674Z,-1.53
2023-03-27T02:21:33.854Z,-1.31
2023-03-27T02:24:06.080Z,-1.02
2023-03-27T02:26:37.893Z,-1.44
2023-03-27T02:29:27.900Z,-0.84
2023-03-27T02:32:25.161Z,-0.90
2023-03-27T02:34:59.428Z,-0.88
2023-03-27T02:37:42.280Z,-0.92
2023-03-27T02:40:23.728Z,-1.03
2023-03-27T02:43:16.303Z,-1.15
2023-03-27T02:46:01.024Z,-1.61
2023-03-27T02:48:40.724Z,-1.29
2023-03-27T02:51:30.999Z,-1.26
2023-03-27T02:54:06.583Z,-1.16
2023-03-27T02:56:44.722Z,-1.16
2023-03-27T02:59:25.518Z,-1.77
2023-03-27T03:01:57.917Z,-1.21
2023-03-27T03:04:41.532Z,-1.22
2023-03-27T03:07:14.348Z,-1.79
2023-03-27T03:09:45.992Z,-1.64
2023-03-27T03:12:17.419Z,-1.89
2023-03-27T03:14:48.822Z,-1.39
2023-03-27T03:17:20.316Z,-1.42
2023-03-27T03:19:51.660Z,-1.89
2023-03-27T03:22:23.103Z,-1.27
2023-03-27T03:24:54.427Z,-1.92
2023-03-27T03:27:29.067Z,-1.44
2023-03-27T03:30:01.085Z,-1.76
2023-03-27T03:32:33.971Z,-1.36
2023-03-27T03:35:06.464Z,-1.45
2023-03-27T03:37:39.052Z,-1.37
2023-03-27T03:40:12.032Z,-1.48
2023-03-27T03:42:47.989Z,-1.40
2023-03-27T03:45:19.386Z,-1.62
2023-03-27T03:47:50.738Z,-1.44
2023-03-27T03:50:22.134Z,-1.52
2023-03-27T03:52:53.528Z,-1.43
2023-03-27T03:55:25.694Z,-2.03
2023-03-27T03:57:57.007Z,-1.55
2023-03-27T04:00:28.745Z,-1.25
2023-03-27T04:03:00.528Z,-1.17
2023-03-27T04:05:31.929Z,-1.14
2023-03-27T04:08:07.112Z,-0.84
2023-03-27T04:10:39.494Z,-0.90
2023-03-27T04:13:10.824Z,-0.30
2023-03-27T04:15:43.326Z,-0.04
2023-03-27T04:18:15.141Z,-0.33
2023-03-27T04:20:50.534Z,0.50
2023-03-27T04:23:21.886Z,0.48
2023-03-27T04:25:53.441Z,-0.06
2023-03-27T04:28:24.833Z,0.35
2023-03-27T04:30:58.281Z,-0.12
2023-03-27T04:33:30.640Z,0.30
2023-03-27T04:36:06.483Z,0.24
2023-03-27T04:38:39.541Z,0.07
2023-03-27T04:41:11.951Z,-0.02
2023-03-27T04:43:43.333Z,-0.34
2023-03-27T04:46:14.808Z,-0.02
2023-03-27T04:48:46.389Z,-0.17
2023-03-27T04:51:18.044Z,-0.23
2023-03-27T04:53:49.362Z,-0.27
2023-03-27T04:56:22.742Z,-0.43
2023-03-27T04:58:54.080Z,-1.08
2023-03-27T05:09:03.516Z,-0.39
2023-03-27T05:11:34.986Z,-0.23
2023-03-27T05:14:06.990Z,-0.06
2023-03-27T05:16:38.338Z,-0.02
2023-03-27T05:19:10.104Z,-0.12
2023-03-27T05:21:42.064Z,0.40
2023-03-27T05:24:15.361Z,0.28
2023-03-27T05:26:58.645Z,0.42
2023-03-27T05:29:30.395Z,0.34
2023-03-27T05:32:18.500Z,0.45
2023-03-27T05:34:54.746Z,0.24
2023-03-27T05:37:35.516Z,0.46
2023-03-27T05:40:08.138Z,0.28
2023-03-27T05:42:45.378Z,0.44
2023-03-27T05:45:16.996Z,0.37
2023-03-27T05:51:34.167Z,0.38
2023-03-27T05:54:05.599Z,0.63
2023-03-27T05:56:37.324Z,0.61
2023-03-27T05:59:08.776Z,0.73
2023-03-27T06:01:40.320Z,0.90
2023-03-27T06:04:12.344Z,1.23
2023-03-27T06:06:45.449Z,1.41
2023-03-27T06:09:17.106Z,1.78
2023-03-27T06:11:48.499Z,1.88
2023-03-27T06:14:19.949Z,1.73
2023-03-27T06:16:51.842Z,2.17
2023-03-27T06:19:24.472Z,1.85
2023-03-27T06:21:55.928Z,2.14
2023-03-27T06:24:27.276Z,2.29
2023-03-27T06:26:59.034Z,2.20
2023-03-27T06:29:30.557Z,2.25
2023-03-27T06:32:02.710Z,2.31
2023-03-27T06:34:34.113Z,2.17
2023-03-27T06:37:05.966Z,2.82
2023-03-27T06:39:37.568Z,2.95
2023-03-27T06:42:09.109Z,2.86
2023-03-27T06:44:40.593Z,2.98
2023-03-27T06:47:12.889Z,3.06
2023-03-27T06:49:47.705Z,3.02
2023-03-27T06:52:19.202Z,2.63
2023-03-27T06:54:51.098Z,3.31
2023-03-27T06:57:22.829Z,3.48
2023-03-27T06:59:54.290Z,3.27
2023-03-27T07:02:25.727Z,3.90
2023-03-27T07:05:04.169Z,4.22
2023-03-27T07:07:36.816Z,4.68
2023-03-27T07:10:10.816Z,4.40
2023-03-27T07:12:50.366Z,4.85
2023-03-27T07:15:23.792Z,4.42
2023-03-27T07:18:01.440Z,4.32
2023-03-27T07:20:34.069Z,4.00
2023-03-27T07:23:06.685Z,3.89
2023-03-27T07:25:38.442Z,4.06
2023-03-27T07:28:19.333Z,3.84
2023-03-27T07:30:50.894Z,4.09
2023-03-27T07:33:22.383Z,3.81
2023-03-27T07:35:57.227Z,4.42
2023-03-27T07:38:28.915Z,4.80
2023-03-27T07:41:06.488Z,5.16
2023-03-27T07:43:39.166Z,5.26
2023-03-27T07:46:11.728Z,5.07
2023-03-27T07:48:44.560Z,5.20
2023-03-27T07:51:17.637Z,5.25
2023-03-27T07:53:53.920Z,5.50
2023-03-27T07:56:26.413Z,5.77
2023-03-27T07:58:58.289Z,5.48
2023-03-27T08:01:30.493Z,5.39
2023-03-27T08:04:02.492Z,5.64
2023-03-27T08:06:34.561Z,5.48
2023-03-27T08:09:05.951Z,5.18
2023-03-27T08:11:41.309Z,5.08
2023-03-27T08:14:13.100Z,5.02
2023-03-27T08:16:44.567Z,5.11
2023-03-27T08:19:16.044Z,4.61
2023-03-27T08:21:47.367Z,4.98
2023-03-27T08:24:18.825Z,4.57
2023-03-27T08:26:51.382Z,4.78
2023-03-27T08:29:23.005Z,4.75
2023-03-27T08:31:54.752Z,4.86
2023-03-27T08:34:28.094Z,4.80
2023-03-27T08:36:59.599Z,5.13
2023-03-27T08:39:30.960Z,4.75
2023-03-27T08:42:08.296Z,5.27
2023-03-27T08:44:40.703Z,4.78
2023-03-27T08:47:27.733Z,5.07
2023-03-27T08:50:05.433Z,5.01
2023-03-27T08:52:38.341Z,5.19
2023-03-27T08:55:26.084Z,5.42
2023-03-27T08:57:59.034Z,5.78
2023-03-27T09:00:36.797Z,6.22
2023-03-27T09:03:28.719Z,6.26
2023-03-27T09:06:12.483Z,6.69
2023-03-27T09:09:02.889Z,6.22
2023-03-27T09:12:05.067Z,6.50
2023-03-27T09:14:41.096Z,6.28
2023-03-27T09:17:37.720Z,6.89
2023-03-27T09:20:35.838Z,7.15
2023-03-27T09:23:43.662Z,7.74
2023-03-27T09:27:07.275Z,8.16
2023-03-27T09:29:41.567Z,7.59
2023-03-27T09:32:16.031Z,7.18
2023-03-27T09:34:48.064Z,6.72
2023-03-27T09:37:19.497Z,5.78
2023-03-27T09:39:52.719Z,5.79
2023-03-27T09:42:29.281Z,6.31
2023-03-27T09:45:04.382Z,6.67
2023-03-27T09:47:59.781Z,6.89
2023-03-27T09:50:38.817Z,6.29
2023-03-27T09:53:11.749Z,6.60
2023-03-27T09:55:52.864Z,6.63
2023-03-27T09:58:40.848Z,6.67
2023-03-27T10:01:30.898Z,6.26
2023-03-27T10:04:17.095Z,6.26
2023-03-27T10:07:10.156Z,6.48
2023-03-27T10:09:41.666Z,6.51
2023-03-27T10:12:20.543Z,6.39
2023-03-27T10:14:52.906Z,6.69
2023-03-27T10:17:30.212Z,6.86
2023-03-27T10:20:24.893Z,6.86
2023-03-27T10:23:08.896Z,6.53
2023-03-27T10:25:50.379Z,6.74
2023-03-27T10:28:27.013Z,7.19
2023-03-27T10:31:24.498Z,7.19
2023-03-27T10:33:58.070Z,7.38
2023-03-27T10:36:40.402Z,7.51
2023-03-27T10:39:14.528Z,7.88
2023-03-27T10:41:47.837Z,8.38
2023-03-27T10:44:21.386Z,8.48
2023-03-27T10:46:53.545Z,8.45
2023-03-27T10:49:30.813Z,8.96
2023-03-27T10:52:18.094Z,9.34
2023-03-27T10:55:12.499Z,8.74
2023-03-27T10:57:48.965Z,8.92
2023-03-27T11:00:48.656Z,8.79
2023-03-27T11:03:41.154Z,8.13
2023-03-27T11:06:16.996Z,8.39
2023-03-27T11:09:06.387Z,8.41
2023-03-27T11:11:47.847Z,8.32
2023-03-27T11:14:26.144Z,8.27
2023-03-27T11:17:04.105Z,8.33
2023-03-27T11:19:52.851Z,8.44
2023-03-27T11:22:42.374Z,7.79
2023-03-27T11:25:38.005Z,8.19
2023-03-27T11:28:32.010Z,7.95
2023-03-27T11:31:25.793Z,7.78
2023-03-27T11:34:29.325Z,7.36
2023-03-27T11:37:25.880Z,7.60
2023-03-27T11:40:07.489Z,6.71
2023-03-27T11:42:42.643Z,5.83
2023-03-27T11:45:17.409Z,4.79
2023-03-27T11:48:01.228Z,4.45
2023-03-27T11:50:48.251Z,3.34
2023-03-27T11:53:32.588Z,3.09
2023-03-27T11:56:29.266Z,3.38
2023-03-27T11:59:20.512Z,3.18
2023-03-27T12:02:21.314Z,3.14
2023-03-27T12:05:28.294Z,3.18
2023-03-27T12:08:09.697Z,3.19
2023-03-27T12:10:43.641Z,3.09
2023-03-27T12:14:01.787Z,3.13
2023-03-27T12:16:55.019Z,3.54
2023-03-27T12:20:01.059Z,3.26
2023-03-27T12:22:52.992Z,3.86
2023-03-27T12:25:41.578Z,3.89
2023-03-27T12:28:30.671Z,4.02
2023-03-27T12:31:39.611Z,4.14
2023-03-27T12:34:50.146Z,4.40
2023-03-27T12:37:31.244Z,4.48
2023-03-27T12:40:24.958Z,4.71
2023-03-27T12:43:19.385Z,4.93
2023-03-27T12:46:12.217Z,5.40
2023-03-27T12:48:57.089Z,5.60
2023-03-27T12:52:04.834Z,5.16
2023-03-27T12:54:39.014Z,5.77
2023-03-27T12:57:22.278Z,5.83
2023-03-27T13:00:10.314Z,5.84
2023-03-27T13:02:51.294Z,5.90
2023-03-27T13:05:27.423Z,5.98
2023-03-27T13:07:59.043Z,5.77
2023-03-27T13:11:09.184Z,5.57
2023-03-27T13:14:22.546Z,5.46
2023-03-27T13:17:26.157Z,5.41
2023-03-27T13:20:10.221Z,5.41
2023-03-27T13:23:10.638Z,5.72
2023-03-27T13:25:51.209Z,6.13
2023-03-27T13:28:34.608Z,6.51
2023-03-27T13:31:11.110Z,6.34
2023-03-27T13:33:45.810Z,7.08
2023-03-27T13:36:20.846Z,7.05
2023-03-27T13:38:52.489Z,7.11
2023-03-27T13:41:48.595Z,7.17
2023-03-27T13:44:45.275Z,7.31
2023-03-27T13:47:34.956Z,7.27
2023-03-27T13:50:14.839Z,6.99
2023-03-27T13:53:16.500Z,6.53
2023-03-27T13:56:04.016Z,5.64
2023-03-27T13:58:50.766Z,5.65
2023-03-27T14:01:28.227Z,5.93
2023-03-27T14:04:29.534Z,6.20
2023-03-27T14:07:43.305Z,6.30
2023-03-27T14:10:25.950Z,6.83
2023-03-27T14:13:13.464Z,6.93
2023-03-27T14:16:01.102Z,6.83
2023-03-27T14:18:44.817Z,7.19
2023-03-27T14:21:35.485Z,7.09
2023-03-27T14:24:24.087Z,6.82
2023-03-27T14:26:56.373Z,7.32
2023-03-27T14:29:28.868Z,7.53
2023-03-27T14:32:05.847Z,7.81
2023-03-27T14:34:53.378Z,7.74
2023-03-27T14:37:31.287Z,7.97
2023-03-27T14:40:22.901Z,7.61
2023-03-27T14:42:56.041Z,7.70
2023-03-27T14:45:33.221Z,6.85
2023-03-27T14:48:22.585Z,6.60
2023-03-27T14:50:57.914Z,6.11
2023-03-27T14:53:37.880Z,6.08
2023-03-27T14:56:22.999Z,5.48
2023-03-27T14:58:58.714Z,5.48
2023-03-27T15:01:31.932Z,5.84
2023-03-27T15:04:07.285Z,5.69
2023-03-27T15:06:39.433Z,4.94
2023-03-27T15:09:16.068Z,4.70
2023-03-27T15:11:53.269Z,5.08
2023-03-27T15:14:29.449Z,4.55
2023-03-27T15:17:14.882Z,4.25
2023-03-27T15:19:53.809Z,4.11
2023-03-27T15:22:33.945Z,3.65
2023-03-27T15:25:33.012Z,4.55
2023-03-27T15:28:10.903Z,4.65
2023-03-27T15:30:51.645Z,4.19
2023-03-27T15:33:34.544Z,4.25
2023-03-27T15:36:26.341Z,4.72
2023-03-27T15:39:00.552Z,5.00
2023-03-27T15:41:35.114Z,5.29
2023-03-27T15:44:12.921Z,5.10
2023-03-27T15:46:54.251Z,4.91
2023-03-27T15:49:32.475Z,4.89
2023-03-27T15:52:32.830Z,4.84
2023-03-27T15:55:04.544Z,4.66
2023-03-27T15:57:36.045Z,4.57
2023-03-27T16:00:14.539Z,4.73
2023-03-27T16:02:48.014Z,4.40
2023-03-27T16:05:20.228Z,4.86
2023-03-27T16:07:52.147Z,4.91
2023-03-27T16:10:32.564Z,5.12
2023-03-27T16:13:06.444Z,4.98
2023-03-27T16:15:45.041Z,4.69
2023-03-27T16:18:36.821Z,5.03
2023-03-27T16:21:16.056Z,5.07
2023-03-27T16:23:47.859Z,5.18
2023-03-27T16:26:26.505Z,4.73
2023-03-27T16:29:01.655Z,4.78
2023-03-27T16:31:33.244Z,4.66
2023-03-27T16:34:12.038Z,4.95
2023-03-27T16:36:54.873Z,4.87
2023-03-27T16:39:26.506Z,4.80
2023-03-27T16:41:57.860Z,4.73
2023-03-27T16:44:29.344Z,4.48
2023-03-27T16:47:00.735Z,4.54
2023-03-27T16:49:32.095Z,4.60
2023-03-27T16:52:04.003Z,4.07
2023-03-27T16:54:35.990Z,4.62
2023-03-27T16:57:07.902Z,4.43
2023-03-27T16:59:39.465Z,4.81
2023-03-27T17:02:12.847Z,5.03
2023-03-27T17:04:45.463Z,4.94
2023-03-27T17:07:16.942Z,5.01
2023-03-27T17:09:48.422Z,5.07
2023-03-27T17:12:20.182Z,5.15
2023-03-27T17:14:52.438Z,5.12
2023-03-27T17:17:24.628Z,4.91
2023-03-27T17:19:56.731Z,4.80
2023-03-27T17:22:29.941Z,4.80
2023-03-27T17:25:03.528Z,4.77
2023-03-27T17:27:35.348Z,4.38
2023-03-27T17:30:07.671Z,4.37
2023-03-27T17:32:39.117Z,4.14
2023-03-27T17:35:10.517Z,4.27
2023-03-27T17:37:42.022Z,4.11
2023-03-27T17:40:14.299Z,4.05
2023-03-27T17:42:46.035Z,3.86
2023-03-27T17:45:17.585Z,3.79
2023-03-27T17:47:48.914Z,3.65
2023-03-27T17:50:20.592Z,3.61
2023-03-27T17:52:52.093Z,3.39
2023-03-27T17:55:23.662Z,3.53
2023-03-27T17:58:08.399Z,3.34
2023-03-27T18:00:44.044Z,3.40
2023-03-27T18:03:16.740Z,3.40
2023-03-27T18:05:48.401Z,3.25
2023-03-27T18:08:20.101Z,3.36
2023-03-27T18:10:51.740Z,2.96
2023-03-27T18:13:25.281Z,3.13
2023-03-27T18:15:58.604Z,2.92
2023-03-27T18:18:30.521Z,3.11
2023-03-27T18:21:02.411Z,3.26
2023-03-27T18:23:35.038Z,3.29
2023-03-27T18:26:07.092Z,3.43
2023-03-27T18:28:38.590Z,3.54
2023-03-27T18:31:15.741Z,3.38
2023-03-27T18:33:47.199Z,3.63
2023-03-27T18:36:18.660Z,3.53
2023-03-27T18:38:50.315Z,3.60
2023-03-27T18:41:21.952Z,3.61
2023-03-27T18:43:53.321Z,3.56
2023-03-27T18:46:24.800Z,3.76
2023-03-27T18:48:56.971Z,3.36
2023-03-27T18:51:31.489Z,3.79
2023-03-27T18:54:02.838Z,3.77
2023-03-27T18:56:35.255Z,3.90
2023-03-27T18:59:08.928Z,3.96
2023-03-27T19:01:40.557Z,3.93
2023-03-27T19:04:13.973Z,4.05
2023-03-27T19:06:47.754Z,4.18
2023-03-27T19:09:23.450Z,4.09
2023-03-27T19:12:02.813Z,4.18
2023-03-27T19:14:34.428Z,4.13
2023-03-27T19:17:06.042Z,3.77
2023-03-27T19:19:37.643Z,3.82
2023-03-27T19:22:12.799Z,3.65
2023-03-27T19:24:44.258Z,3.52
2023-03-27T19:27:23.996Z,3.41
2023-03-27T19:29:55.793Z,3.06
2023-03-27T19:32:27.443Z,2.59
2023-03-27T19:34:58.868Z,2.90
2023-03-27T19:37:31.247Z,2.87
2023-03-27T19:40:05.227Z,2.50
2023-03-27T19:42:36.657Z,2.66
2023-03-27T19:45:08.890Z,2.59
2023-03-27T19:47:40.559Z,2.52
2023-03-27T19:50:14.519Z,2.38
2023-03-27T19:52:54.484Z,2.33
2023-03-27T19:55:32.742Z,2.47
2023-03-27T19:58:04.247Z,1.98
2023-03-27T20:00:38.386Z,2.27
2023-03-27T20:03:10.669Z,2.15
2023-03-27T20:05:48.322Z,1.54
2023-03-27T20:08:21.465Z,2.04
2023-03-27T20:10:53.084Z,2.15
2023-03-27T20:13:24.910Z,1.99
2023-03-27T20:15:57.960Z,2.20
2023-03-27T20:18:32.729Z,2.31
2023-03-27T20:21:05.073Z,2.19
2023-03-27T20:23:37.654Z,2.03
2023-03-27T20:26:09.451Z,2.36
2023-03-27T20:28:40.818Z,2.02
2023-03-27T20:31:12.166Z,2.59
2023-03-27T20:33:45.508Z,2.62
2023-03-27T20:36:19.668Z,2.63
2023-03-27T20:38:52.640Z,2.67
2023-03-27T20:41:27.334Z,2.58
2023-03-27T20:43:58.863Z,2.43
2023-03-27T20:46:30.537Z,2.02
2023-03-27T20:49:03.401Z,2.27
2023-03-27T20:51:34.761Z,2.15
2023-03-27T20:54:09.834Z,2.15
2023-03-27T20:56:41.338Z,2.06
2023-03-27T20:59:13.501Z,1.60
2023-03-27T21:01:45.117Z,2.20
2023-03-27T21:04:16.609Z,2.22
2023-03-27T21:06:48.214Z,2.15
2023-03-27T21:09:19.567Z,2.09
2023-03-27T21:11:51.004Z,1.93
2023-03-27T21:14:23.142Z,2.29
2023-03-27T21:16:54.526Z,2.45
2023-03-27T21:19:25.931Z,2.41
2023-03-27T21:21:57.302Z,2.40
2023-03-27T21:24:28.633Z,2.25
2023-03-27T21:27:00.329Z,2.16
2023-03-27T21:29:31.957Z,2.04
2023-03-27T21:32:03.448Z,1.98
2023-03-27T21:34:34.751Z,2.10
2023-03-27T21:37:06.213Z,2.10
2023-03-27T21:39:37.653Z,2.10
2023-03-27T21:42:08.975Z,2.15
2023-03-27T21:44:40.364Z,2.23
2023-03-27T21:47:11.992Z,2.23
2023-03-27T21:49:43.398Z,2.46
2023-03-27T21:52:14.778Z,2.42
2023-03-27T21:55:00.106Z,1.94
2023-03-27T21:57:34.085Z,2.46
2023-03-27T22:00:06.940Z,2.49
2023-03-27T22:02:38.388Z,2.45
2023-03-27T22:05:09.813Z,2.56
2023-03-27T22:07:41.967Z,2.10
2023-03-27T22:10:13.426Z,2.38
2023-03-27T22:12:44.844Z,2.30
2023-03-27T22:15:16.354Z,1.73
2023-03-27T22:17:49.116Z,1.86
2023-03-27T22:20:20.639Z,2.22
2023-03-27T22:22:52.044Z,2.14
2023-03-27T22:25:23.408Z,2.02
2023-03-27T22:27:54.964Z,1.93
2023-03-27T22:30:27.156Z,1.61
2023-03-27T22:32:58.511Z,1.82
2023-03-27T22:35:29.931Z,1.85
2023-03-27T22:38:01.613Z,1.78
2023-03-27T22:40:32.965Z,1.66
2023-03-27T22:43:04.304Z,1.58
2023-03-27T22:45:36.255Z,1.78
2023-03-27T22:48:09.239Z,1.69
2023-03-27T22:50:42.039Z,1.75
2023-03-27T22:53:13.321Z,1.86
2023-03-27T22:55:51.162Z,1.95
2023-03-27T22:58:23.451Z,2.09
2023-03-27T23:00:55.394Z,1.59
2023-03-27T23:03:27.909Z,2.20
2023-03-27T23:05:59.679Z,2.16
2023-03-27T23:08:31.606Z,2.16
2023-03-27T23:11:06.166Z,1.73
2023-03-27T23:13:37.489Z,1.96
2023-03-27T23:16:09.728Z,1.47
2023-03-27T23:18:41.252Z,1.42
2023-03-27T23:21:14.076Z,1.11
2023-03-27T23:23:46.105Z,1.34
2023-03-27T23:26:18.340Z,1.10
2023-03-27T23:28:49.689Z,0.88
2023-03-27T23:31:21.106Z,1.15
2023-03-27T23:33:52.569Z,0.72
2023-03-27T23:36:25.061Z,1.02
2023-03-27T23:38:56.595Z,0.90
2023-03-27T23:41:29.379Z,0.87
2023-03-27T23:44:00.919Z,0.89
2023-03-27T23:46:32.617Z,0.86
2023-03-27T23:49:04.046Z,0.82
2023-03-27T23:51:35.505Z,0.80
2023-03-27T23:54:06.896Z,0.77
2023-03-27T23:56:38.507Z,0.42
2023-03-27T23:59:09.865Z,0.75
